sensor_id;sensor_type;location;lat;lon;timestamp;pressure;altitude;pressure_sealevel;temperature;humidity
64340;BME280;63709;53.258;-8.814;2023-06-24T00:01:39;101700.09;;;22.10;100.00
64340;BME280;63709;53.258;-8.814;2023-06-24T00:04:05;101693.63;;;22.11;100.00
64340;BME280;63709;53.258;-8.814;2023-06-24T00:06:30;101691.56;;;22.13;100.00
64340;BME280;63709;53.258;-8.814;2023-06-24T00:08:57;101680.19;;;22.10;100.00
64340;BME280;63709;53.258;-8.814;2023-06-24T00:11:30;101689.25;;;22.18;100.00
64340;BME280;63709;53.258;-8.814;2023-06-24T00:13:56;101686.13;;;22.13;100.00
64340;BME280;63709;53.258;-8.814;2023-06-24T00:16:23;101689.41;;;22.25;100.00
64340;BME280;63709;53.258;-8.814;2023-06-24T00:18:55;101693.97;;;22.25;100.00
64340;BME280;63709;53.258;-8.814;2023-06-24T00:21:27;101690.94;;;22.19;100.00
64340;BME280;63709;53.258;-8.814;2023-06-24T00:23:58;101671.69;;;22.05;100.00
64340;BME280;63709;53.258;-8.814;2023-06-24T00:26:28;101683.94;;;22.09;100.00
64340;BME280;63709;53.258;-8.814;2023-06-24T00:28:54;101680.38;;;22.08;100.00
64340;BME280;63709;53.258;-8.814;2023-06-24T00:31:26;101674.09;;;22.08;100.00
64340;BME280;63709;53.258;-8.814;2023-06-24T00:33:52;101676.63;;;22.09;100.00
64340;BME280;63709;53.258;-8.814;2023-06-24T00:36:18;101680.88;;;22.12;100.00
64340;BME280;63709;53.258;-8.814;2023-06-24T00:38:45;101667.28;;;21.95;100.00
64340;BME280;63709;53.258;-8.814;2023-06-24T00:41:11;101669.31;;;22.02;100.00
64340;BME280;63709;53.258;-8.814;2023-06-24T00:43:38;101655.03;;;21.91;100.00
64340;BME280;63709;53.258;-8.814;2023-06-24T00:46:04;101675.44;;;22.04;100.00
64340;BME280;63709;53.258;-8.814;2023-06-24T00:48:33;101674.41;;;21.96;100.00
64340;BME280;63709;53.258;-8.814;2023-06-24T00:50:58;101662.69;;;21.96;100.00
64340;BME280;63709;53.258;-8.814;2023-06-24T00:53:28;101679.16;;;21.94;100.00
64340;BME280;63709;53.258;-8.814;2023-06-24T00:55:56;101679.53;;;21.99;100.00
64340;BME280;63709;53.258;-8.814;2023-06-24T00:58:29;101666.22;;;21.80;100.00
64340;BME280;63709;53.258;-8.814;2023-06-24T01:00:57;101673.91;;;21.93;100.00
64340;BME280;63709;53.258;-8.814;2023-06-24T01:03:26;101691.56;;;21.89;100.00
64340;BME280;63709;53.258;-8.814;2023-06-24T01:05:54;101673.91;;;21.85;100.00
64340;BME280;63709;53.258;-8.814;2023-06-24T01:08:21;101685.28;;;21.96;100.00
64340;BME280;63709;53.258;-8.814;2023-06-24T01:10:49;101678.50;;;21.84;100.00
64340;BME280;63709;53.258;-8.814;2023-06-24T01:13:17;101662.50;;;21.73;100.00
64340;BME280;63709;53.258;-8.814;2023-06-24T01:15:44;101676.09;;;21.81;100.00
64340;BME280;63709;53.258;-8.814;2023-06-24T01:34:48;101685.09;;;21.82;100.00
64340;BME280;63709;53.258;-8.814;2023-06-24T01:37:21;101688.66;;;21.82;100.00
64340;BME280;63709;53.258;-8.814;2023-06-24T01:40:09;101693.44;;;21.88;100.00
64340;BME280;63709;53.258;-8.814;2023-06-24T01:42:38;101690.88;;;21.79;100.00
64340;BME280;63709;53.258;-8.814;2023-06-24T01:45:07;101675.72;;;21.68;100.00
64340;BME280;63709;53.258;-8.814;2023-06-24T01:47:36;101671.66;;;21.64;100.00
64340;BME280;63709;53.258;-8.814;2023-06-24T01:50:06;101688.66;;;21.74;100.00
64340;BME280;63709;53.258;-8.814;2023-06-24T01:52:36;101681.88;;;21.70;100.00
64340;BME280;63709;53.258;-8.814;2023-06-24T01:55:06;101677.09;;;21.72;100.00
64340;BME280;63709;53.258;-8.814;2023-06-24T01:57:34;101661.09;;;21.53;100.00
64340;BME280;63709;53.258;-8.814;2023-06-24T02:00:04;101689.84;;;21.71;100.00
64340;BME280;63709;53.258;-8.814;2023-06-24T02:02:34;101692.41;;;21.73;100.00
64340;BME280;63709;53.258;-8.814;2023-06-24T02:05:02;101685.41;;;21.70;100.00
64340;BME280;63709;53.258;-8.814;2023-06-24T02:07:31;101689.84;;;21.71;100.00
64340;BME280;63709;53.258;-8.814;2023-06-24T02:09:58;101690.16;;;21.77;100.00
64340;BME280;63709;53.258;-8.814;2023-06-24T02:12:26;101682.72;;;21.79;100.00
64340;BME280;63709;53.258;-8.814;2023-06-24T02:14:55;101684.59;;;21.86;100.00
64340;BME280;63709;53.258;-8.814;2023-06-24T02:17:24;101671.13;;;21.68;100.00
64340;BME280;63709;53.258;-8.814;2023-06-24T02:19:51;101689.50;;;21.83;100.00
64340;BME280;63709;53.258;-8.814;2023-06-24T02:22:18;101676.44;;;21.86;100.00
64340;BME280;63709;53.258;-8.814;2023-06-24T02:24:44;101680.84;;;21.79;100.00
64340;BME280;63709;53.258;-8.814;2023-06-24T02:27:11;101673.06;;;21.84;100.00
64340;BME280;63709;53.258;-8.814;2023-06-24T02:29:38;101682.53;;;21.80;100.00
64340;BME280;63709;53.258;-8.814;2023-06-24T02:32:09;101660.44;;;21.67;100.00
64340;BME280;63709;53.258;-8.814;2023-06-24T02:34:35;101659.59;;;21.74;100.00
64340;BME280;63709;53.258;-8.814;2023-06-24T02:37:02;101660.13;;;21.78;100.00
64340;BME280;63709;53.258;-8.814;2023-06-24T02:39:30;101671.34;;;21.83;100.00
64340;BME280;63709;53.258;-8.814;2023-06-24T02:41:56;101671.00;;;21.86;100.00
64340;BME280;63709;53.258;-8.814;2023-06-24T02:44:21;101671.69;;;21.88;100.00
64340;BME280;63709;53.258;-8.814;2023-06-24T02:46:47;101675.41;;;21.87;100.00
64340;BME280;63709;53.258;-8.814;2023-06-24T02:49:15;101671.34;;;21.91;100.00
64340;BME280;63709;53.258;-8.814;2023-06-24T02:51:44;101665.75;;;21.85;100.00
64340;BME280;63709;53.258;-8.814;2023-06-24T02:54:11;101674.22;;;21.98;100.00
64340;BME280;63709;53.258;-8.814;2023-06-24T02:56:40;101672.72;;;21.95;100.00
64340;BME280;63709;53.258;-8.814;2023-06-24T02:59:07;101679.50;;;21.91;100.00
64340;BME280;63709;53.258;-8.814;2023-06-24T03:01:34;101668.63;;;21.91;100.00
64340;BME280;63709;53.258;-8.814;2023-06-24T03:04:05;101655.19;;;21.90;100.00
64340;BME280;63709;53.258;-8.814;2023-06-24T03:06:32;101658.75;;;21.90;100.00
64340;BME280;63709;53.258;-8.814;2023-06-24T03:09:00;101664.91;;;22.01;100.00
64340;BME280;63709;53.258;-8.814;2023-06-24T03:11:26;101663.03;;;21.93;100.00
64340;BME280;63709;53.258;-8.814;2023-06-24T03:13:54;101673.56;;;21.96;100.00
64340;BME280;63709;53.258;-8.814;2023-06-24T03:16:20;101670.16;;;22.02;100.00
64340;BME280;63709;53.258;-8.814;2023-06-24T03:18:45;101659.28;;;21.94;100.00
64340;BME280;63709;53.258;-8.814;2023-06-24T03:21:11;101656.03;;;21.98;100.00
64340;BME280;63709;53.258;-8.814;2023-06-24T03:23:37;101659.97;;;21.96;100.00
64340;BME280;63709;53.258;-8.814;2023-06-24T03:26:02;101674.75;;;22.10;100.00
64340;BME280;63709;53.258;-8.814;2023-06-24T03:28:30;101672.22;;;22.00;100.00
64340;BME280;63709;53.258;-8.814;2023-06-24T03:30:57;101677.31;;;22.03;100.00
64340;BME280;63709;53.258;-8.814;2023-06-24T03:33:23;101682.56;;;22.13;100.00
64340;BME280;63709;53.258;-8.814;2023-06-24T03:35:50;101678.16;;;22.12;100.00
64340;BME280;63709;53.258;-8.814;2023-06-24T03:38:26;101682.44;;;22.14;100.00
64340;BME280;63709;53.258;-8.814;2023-06-24T03:40:53;101657.91;;;21.98;100.00
64340;BME280;63709;53.258;-8.814;2023-06-24T03:43:24;101688.03;;;22.21;100.00
64340;BME280;63709;53.258;-8.814;2023-06-24T03:45:50;101682.56;;;22.13;100.00
64340;BME280;63709;53.258;-8.814;2023-06-24T03:48:15;101679.66;;;22.06;100.00
64340;BME280;63709;53.258;-8.814;2023-06-24T03:50:44;101691.44;;;22.15;100.00
64340;BME280;63709;53.258;-8.814;2023-06-24T03:53:09;101699.63;;;22.15;100.00
64340;BME280;63709;53.258;-8.814;2023-06-24T03:55:36;101679.53;;;21.99;100.00
64340;BME280;63709;53.258;-8.814;2023-06-24T03:58:02;101704.16;;;22.06;100.00
64340;BME280;63709;53.258;-8.814;2023-06-24T04:00:27;101708.06;;;22.12;100.00
64340;BME280;63709;53.258;-8.814;2023-06-24T04:02:54;101709.75;;;22.13;100.00
64340;BME280;63709;53.258;-8.814;2023-06-24T04:05:20;101710.31;;;22.16;100.00
64340;BME280;63709;53.258;-8.814;2023-06-24T04:07:47;101680.19;;;21.93;100.00
64340;BME280;63709;53.258;-8.814;2023-06-24T04:10:13;101704.31;;;22.05;100.00
64340;BME280;63709;53.258;-8.814;2023-06-24T04:12:40;101711.63;;;22.12;100.00
64340;BME280;63709;53.258;-8.814;2023-06-24T04:15:06;101699.22;;;22.10;100.00
64340;BME280;63709;53.258;-8.814;2023-06-24T04:17:33;101708.59;;;22.07;100.00
64340;BME280;63709;53.258;-8.814;2023-06-24T04:19:58;101704.31;;;22.13;100.00
64340;BME280;63709;53.258;-8.814;2023-06-24T04:22:28;101707.88;;;22.13;100.00
64340;BME280;63709;53.258;-8.814;2023-06-24T04:24:53;101712.47;;;22.13;100.00
64340;BME280;63709;53.258;-8.814;2023-06-24T04:27:26;101706.72;;;22.08;100.00
64340;BME280;63709;53.258;-8.814;2023-06-24T04:29:51;101712.16;;;22.08;100.00
64340;BME280;63709;53.258;-8.814;2023-06-24T04:32:18;101706.72;;;22.08;100.00
64340;BME280;63709;53.258;-8.814;2023-06-24T04:34:44;101663.81;;;21.69;100.00
64340;BME280;63709;53.258;-8.814;2023-06-24T04:37:10;101725.22;;;22.04;100.00
64340;BME280;63709;53.258;-8.814;2023-06-24T04:39:36;101710.09;;;21.93;100.00
64340;BME280;63709;53.258;-8.814;2023-06-24T04:42:03;101727.25;;;22.02;100.00
64340;BME280;63709;53.258;-8.814;2023-06-24T04:44:30;101701.94;;;21.85;100.00
64340;BME280;63709;53.258;-8.814;2023-06-24T04:46:55;101698.50;;;21.83;100.00
64340;BME280;63709;53.258;-8.814;2023-06-24T04:49:21;101737.78;;;21.97;100.00
64340;BME280;63709;53.258;-8.814;2023-06-24T04:51:46;101720.97;;;21.85;100.00
64340;BME280;63709;53.258;-8.814;2023-06-24T04:54:12;101724.38;;;21.95;100.00
64340;BME280;63709;53.258;-8.814;2023-06-24T04:56:39;101737.78;;;21.97;100.00
64340;BME280;63709;53.258;-8.814;2023-06-24T04:59:05;101729.31;;;22.00;100.00
64340;BME280;63709;53.258;-8.814;2023-06-24T05:01:30;101718.44;;;21.92;100.00
64340;BME280;63709;53.258;-8.814;2023-06-24T05:03:56;101710.75;;;21.87;100.00
64340;BME280;63709;53.258;-8.814;2023-06-24T05:06:22;101733.06;;;21.99;100.00
64340;BME280;63709;53.258;-8.814;2023-06-24T05:08:48;101742.06;;;21.99;100.00
64340;BME280;63709;53.258;-8.814;2023-06-24T05:11:13;101745.44;;;21.85;100.00
64340;BME280;63709;53.258;-8.814;2023-06-24T05:13:39;101732.66;;;21.69;100.00
64340;BME280;63709;53.258;-8.814;2023-06-24T05:16:07;101755.59;;;21.83;100.00
64340;BME280;63709;53.258;-8.814;2023-06-24T05:18:32;101752.16;;;21.65;100.00
64340;BME280;63709;53.258;-8.814;2023-06-24T05:20:58;101753.50;;;21.61;100.00
64340;BME280;63709;53.258;-8.814;2023-06-24T05:23:23;101749.41;;;21.57;100.00
64340;BME280;63709;53.258;-8.814;2023-06-24T05:25:49;101750.78;;;21.61;100.00
64340;BME280;63709;53.258;-8.814;2023-06-24T05:28:17;101748.06;;;21.61;100.00
64340;BME280;63709;53.258;-8.814;2023-06-24T05:30:45;101753.69;;;21.67;100.00
64340;BME280;63709;53.258;-8.814;2023-06-24T05:33:12;101746.53;;;21.58;100.00
64340;BME280;63709;53.258;-8.814;2023-06-24T05:35:37;101722.00;;;21.42;100.00
64340;BME280;63709;53.258;-8.814;2023-06-24T05:38:08;101730.56;;;21.55;100.00
64340;BME280;63709;53.258;-8.814;2023-06-24T05:40:33;101754.88;;;21.65;100.00
64340;BME280;63709;53.258;-8.814;2023-06-24T05:42:59;101756.22;;;21.69;100.00
64340;BME280;63709;53.258;-8.814;2023-06-24T05:45:26;101751.50;;;21.71;100.00
64340;BME280;63709;53.258;-8.814;2023-06-24T05:47:55;101764.59;;;21.75;100.00
64340;BME280;63709;53.258;-8.814;2023-06-24T05:50:21;101758.94;;;21.69;100.00
64340;BME280;63709;53.258;-8.814;2023-06-24T05:52:47;101745.31;;;21.53;100.00
64340;BME280;63709;53.258;-8.814;2023-06-24T05:55:12;101734.78;;;21.49;100.00
64340;BME280;63709;53.258;-8.814;2023-06-24T05:57:40;101751.78;;;21.52;100.00
64340;BME280;63709;53.258;-8.814;2023-06-24T06:00:08;101777.09;;;21.60;100.00
64340;BME280;63709;53.258;-8.814;2023-06-24T06:02:36;101791.84;;;21.58;100.00
64340;BME280;63709;53.258;-8.814;2023-06-24T06:05:03;101796.63;;;21.56;100.00
64340;BME280;63709;53.258;-8.814;2023-06-24T06:07:28;101799.13;;;21.49;100.00
64340;BME280;63709;53.258;-8.814;2023-06-24T06:09:55;101798.31;;;21.57;100.00
64340;BME280;63709;53.258;-8.814;2023-06-24T06:12:21;101818.88;;;21.59;100.00
64340;BME280;63709;53.258;-8.814;2023-06-24T06:14:46;101780.28;;;21.47;100.00
64340;BME280;63709;53.258;-8.814;2023-06-24T06:17:14;101807.84;;;21.61;100.00
64340;BME280;63709;53.258;-8.814;2023-06-24T06:19:39;101809.38;;;21.63;100.00
64340;BME280;63709;53.258;-8.814;2023-06-24T06:22:07;101801.22;;;21.63;100.00
64340;BME280;63709;53.258;-8.814;2023-06-24T06:24:34;101759.69;;;21.37;100.00
64340;BME280;63709;53.258;-8.814;2023-06-24T06:27:00;101809.59;;;21.70;100.00
64340;BME280;63709;53.258;-8.814;2023-06-24T06:29:27;101805.16;;;21.69;100.00
64340;BME280;63709;53.258;-8.814;2023-06-24T06:31:53;101811.81;;;21.74;100.00
64340;BME280;63709;53.258;-8.814;2023-06-24T06:34:20;101809.63;;;21.78;100.00
64340;BME280;63709;53.258;-8.814;2023-06-24T06:36:47;101809.94;;;21.75;100.00
64340;BME280;63709;53.258;-8.814;2023-06-24T06:39:12;101818.09;;;21.75;100.00
64340;BME280;63709;53.258;-8.814;2023-06-24T06:41:38;101801.25;;;21.71;100.00
64340;BME280;63709;53.258;-8.814;2023-06-24T06:44:04;101817.13;;;21.84;100.00
64340;BME280;63709;53.258;-8.814;2023-06-24T06:46:29;101813.00;;;21.80;100.00
64340;BME280;63709;53.258;-8.814;2023-06-24T06:48:57;101819.34;;;21.89;100.00
64340;BME280;63709;53.258;-8.814;2023-06-24T06:51:23;101799.56;;;21.70;100.00
64340;BME280;63709;53.258;-8.814;2023-06-24T06:53:49;101821.03;;;21.90;100.00
64340;BME280;63709;53.258;-8.814;2023-06-24T06:56:33;101819.88;;;22.01;100.00
64340;BME280;63709;53.258;-8.814;2023-06-24T06:58:59;101796.38;;;21.91;100.00
64340;BME280;63709;53.258;-8.814;2023-06-24T07:01:24;101810.69;;;22.02;100.00
64340;BME280;63709;53.258;-8.814;2023-06-24T07:03:52;101822.28;;;22.04;100.00
64340;BME280;63709;53.258;-8.814;2023-06-24T07:06:18;101825.31;;;22.01;100.00
64340;BME280;63709;53.258;-8.814;2023-06-24T07:08:45;101840.31;;;22.13;100.00
64340;BME280;63709;53.258;-8.814;2023-06-24T07:11:15;101809.34;;;21.97;100.00
64340;BME280;63709;53.258;-8.814;2023-06-24T07:13:42;101835.78;;;22.21;100.00
64340;BME280;63709;53.258;-8.814;2023-06-24T07:16:08;101819.56;;;22.12;100.00
64340;BME280;63709;53.258;-8.814;2023-06-24T07:18:34;101839.38;;;22.30;100.00
64340;BME280;63709;53.258;-8.814;2023-06-24T07:21:00;101832.56;;;22.26;100.00
64340;BME280;63709;53.258;-8.814;2023-06-24T07:23:33;101842.78;;;22.32;100.00
64340;BME280;63709;53.258;-8.814;2023-06-24T07:25:59;101830.88;;;22.25;100.00
64340;BME280;63709;53.258;-8.814;2023-06-24T07:28:24;101822.34;;;22.20;100.00
64340;BME280;63709;53.258;-8.814;2023-06-24T07:30:51;101842.09;;;22.30;100.00
64340;BME280;63709;53.258;-8.814;2023-06-24T07:33:17;101831.84;;;22.16;100.00
64340;BME280;63709;53.258;-8.814;2023-06-24T07:35:43;101819.91;;;22.09;100.00
64340;BME280;63709;53.258;-8.814;2023-06-24T07:38:09;101851.28;;;22.29;100.00
64340;BME280;63709;53.258;-8.814;2023-06-24T07:40:35;101839.34;;;22.22;100.00
64340;BME280;63709;53.258;-8.814;2023-06-24T07:43:01;101824.72;;;22.15;100.00
64340;BME280;63709;53.258;-8.814;2023-06-24T07:45:28;101843.75;;;22.15;100.00
64340;BME280;63709;53.258;-8.814;2023-06-24T07:47:54;101828.25;;;22.07;100.00
64340;BME280;63709;53.258;-8.814;2023-06-24T07:50:20;101827.78;;;22.20;100.00
64340;BME280;63709;53.258;-8.814;2023-06-24T07:52:45;101832.38;;;22.28;100.00
64340;BME280;63709;53.258;-8.814;2023-06-24T07:55:12;101831.88;;;22.24;100.00
64340;BME280;63709;53.258;-8.814;2023-06-24T07:57:38;101807.00;;;22.11;100.00
64340;BME280;63709;53.258;-8.814;2023-06-24T08:00:06;101827.63;;;22.30;100.00
64340;BME280;63709;53.258;-8.814;2023-06-24T08:02:34;101820.84;;;22.26;100.00
64340;BME280;63709;53.258;-8.814;2023-06-24T08:05:00;101803.81;;;22.32;100.00
64340;BME280;63709;53.258;-8.814;2023-06-24T08:07:26;101798.22;;;22.41;100.00
64340;BME280;63709;53.258;-8.814;2023-06-24T08:09:52;101801.47;;;22.45;100.00
64340;BME280;63709;53.258;-8.814;2023-06-24T08:12:18;101810.28;;;22.47;100.00
64340;BME280;63709;53.258;-8.814;2023-06-24T08:14:43;101812.72;;;22.58;100.00
64340;BME280;63709;53.258;-8.814;2023-06-24T08:17:08;101808.09;;;22.67;100.00
64340;BME280;63709;53.258;-8.814;2023-06-24T08:19:34;101806.22;;;22.67;100.00
64340;BME280;63709;53.258;-8.814;2023-06-24T08:22:01;101801.97;;;22.65;100.00
64340;BME280;63709;53.258;-8.814;2023-06-24T08:24:26;101797.72;;;22.70;100.00
64340;BME280;63709;53.258;-8.814;2023-06-24T08:26:52;101800.25;;;22.80;100.00
64340;BME280;63709;53.258;-8.814;2023-06-24T08:29:18;101805.88;;;22.87;100.00
64340;BME280;63709;53.258;-8.814;2023-06-24T08:31:45;101817.47;;;22.97;100.00
64340;BME280;63709;53.258;-8.814;2023-06-24T08:34:11;101824.78;;;22.88;100.00
64340;BME280;63709;53.258;-8.814;2023-06-24T08:36:39;101827.69;;;22.95;100.00
64340;BME280;63709;53.258;-8.814;2023-06-24T08:39:05;101815.78;;;22.96;100.00
64340;BME280;63709;53.258;-8.814;2023-06-24T08:41:31;101819.69;;;23.02;100.00
64340;BME280;63709;53.258;-8.814;2023-06-24T08:43:56;101811.50;;;23.02;100.00
64340;BME280;63709;53.258;-8.814;2023-06-24T08:46:24;101810.50;;;22.94;100.00
64340;BME280;63709;53.258;-8.814;2023-06-24T08:48:58;101814.75;;;22.97;100.00
64340;BME280;63709;53.258;-8.814;2023-06-24T08:51:29;101800.63;;;22.85;100.00
64340;BME280;63709;53.258;-8.814;2023-06-24T08:53:58;101791.25;;;22.88;100.00
64340;BME280;63709;53.258;-8.814;2023-06-24T08:56:24;101775.09;;;22.78;100.00
64340;BME280;63709;53.258;-8.814;2023-06-24T08:58:50;101792.47;;;22.93;100.00
64340;BME280;63709;53.258;-8.814;2023-06-24T09:01:18;101814.59;;;23.07;100.00
64340;BME280;63709;53.258;-8.814;2023-06-24T09:03:44;101800.09;;;23.14;100.00
64340;BME280;63709;53.258;-8.814;2023-06-24T09:06:10;101784.97;;;23.04;100.00
64340;BME280;63709;53.258;-8.814;2023-06-24T09:08:36;101810.44;;;23.27;100.00
64340;BME280;63709;53.258;-8.814;2023-06-24T09:11:05;101811.63;;;23.25;100.00
64340;BME280;63709;53.258;-8.814;2023-06-24T09:13:37;101787.31;;;23.15;100.00
64340;BME280;63709;53.258;-8.814;2023-06-24T09:16:13;101811.75;;;23.39;100.00
64340;BME280;63709;53.258;-8.814;2023-06-24T09:18:39;101786.78;;;23.19;100.00
64340;BME280;63709;53.258;-8.814;2023-06-24T09:21:05;101777.09;;;23.17;100.00
64340;BME280;63709;53.258;-8.814;2023-06-24T09:23:36;101804.84;;;23.29;100.00
64340;BME280;63709;53.258;-8.814;2023-06-24T09:26:02;101793.25;;;23.27;100.00
64340;BME280;63709;53.258;-8.814;2023-06-24T09:28:28;101803.91;;;23.45;100.00
64340;BME280;63709;53.258;-8.814;2023-06-24T09:31:10;101805.47;;;23.39;100.00
64340;BME280;63709;53.258;-8.814;2023-06-24T09:33:35;101782.66;;;23.32;100.00
64340;BME280;63709;53.258;-8.814;2023-06-24T09:36:15;101807.31;;;23.55;100.00
64340;BME280;63709;53.258;-8.814;2023-06-24T09:38:42;101800.81;;;23.56;100.00
64340;BME280;63709;53.258;-8.814;2023-06-24T09:41:09;101792.78;;;23.54;100.00
64340;BME280;63709;53.258;-8.814;2023-06-24T09:43:36;101788.16;;;23.71;100.00
64340;BME280;63709;53.258;-8.814;2023-06-24T09:46:03;101771.31;;;23.59;100.00
64340;BME280;63709;53.258;-8.814;2023-06-24T09:48:33;101774.19;;;23.66;100.00
64340;BME280;63709;53.258;-8.814;2023-06-24T09:51:04;101769.75;;;23.65;100.00
64340;BME280;63709;53.258;-8.814;2023-06-24T09:53:32;101750.75;;;23.49;100.00
64340;BME280;63709;53.258;-8.814;2023-06-24T09:56:03;101750.00;;;23.63;100.00
64340;BME280;63709;53.258;-8.814;2023-06-24T09:58:32;101767.59;;;23.91;100.00
64340;BME280;63709;53.258;-8.814;2023-06-24T10:01:05;101754.91;;;24.07;100.00
64340;BME280;63709;53.258;-8.814;2023-06-24T10:03:34;101782.19;;;24.07;100.00
64340;BME280;63709;53.258;-8.814;2023-06-24T10:06:01;101776.31;;;24.18;100.00
64340;BME280;63709;53.258;-8.814;2023-06-24T10:08:30;101766.38;;;24.25;100.00
64340;BME280;63709;53.258;-8.814;2023-06-24T10:10:57;101776.97;;;24.43;100.00
64340;BME280;63709;53.258;-8.814;2023-06-24T10:13:30;101782.56;;;24.50;100.00
64340;BME280;63709;53.258;-8.814;2023-06-24T10:16:06;101779.41;;;24.61;100.00
64340;BME280;63709;53.258;-8.814;2023-06-24T10:18:39;101761.78;;;24.49;100.00
64340;BME280;63709;53.258;-8.814;2023-06-24T10:21:06;101770.13;;;24.47;100.00
64340;BME280;63709;53.258;-8.814;2023-06-24T10:23:53;101776.88;;;24.59;100.00
64340;BME280;63709;53.258;-8.814;2023-06-24T10:31:50;101769.16;;;24.63;100.00
64340;BME280;63709;53.258;-8.814;2023-06-24T10:37:01;101767.88;;;24.89;100.00
64340;BME280;63709;53.258;-8.814;2023-06-24T10:39:54;101758.22;;;25.16;100.00
64340;BME280;63709;53.258;-8.814;2023-06-24T10:42:39;101757.28;;;25.23;100.00
64340;BME280;63709;53.258;-8.814;2023-06-24T10:47:41;101752.19;;;25.20;100.00
64340;BME280;63709;53.258;-8.814;2023-06-24T10:50:12;101763.78;;;25.22;100.00
64340;BME280;63709;53.258;-8.814;2023-06-24T10:52:46;101748.38;;;24.92;100.00
64340;BME280;63709;53.258;-8.814;2023-06-24T10:55:19;101769.13;;;25.01;100.00
64340;BME280;63709;53.258;-8.814;2023-06-24T10:57:47;101760.16;;;24.92;100.00
64340;BME280;63709;53.258;-8.814;2023-06-24T11:00:14;101760.53;;;24.89;100.00
64340;BME280;63709;53.258;-8.814;2023-06-24T11:02:40;101764.69;;;24.85;100.00
64340;BME280;63709;53.258;-8.814;2023-06-24T11:05:06;101755.91;;;24.90;100.00
64340;BME280;63709;53.258;-8.814;2023-06-24T11:07:36;101756.09;;;24.88;100.00
64340;BME280;63709;53.258;-8.814;2023-06-24T11:10:05;101753.00;;;25.06;100.00
64340;BME280;63709;53.258;-8.814;2023-06-24T11:12:33;101761.88;;;25.08;100.00
64340;BME280;63709;53.258;-8.814;2023-06-24T11:15:04;101753.97;;;25.13;100.00
64340;BME280;63709;53.258;-8.814;2023-06-24T11:17:31;101739.81;;;25.09;100.00
64340;BME280;63709;53.258;-8.814;2023-06-24T11:19:58;101753.97;;;25.13;100.00
64340;BME280;63709;53.258;-8.814;2023-06-24T11:22:25;101747.66;;;25.13;100.00
64340;BME280;63709;53.258;-8.814;2023-06-24T11:24:52;101750.94;;;25.08;100.00
64340;BME280;63709;53.258;-8.814;2023-06-24T11:27:28;101745.84;;;25.05;100.00
64340;BME280;63709;53.258;-8.814;2023-06-24T11:29:57;101736.53;;;24.99;100.00
64340;BME280;63709;53.258;-8.814;2023-06-24T11:32:44;101743.59;;;24.94;100.00
64340;BME280;63709;53.258;-8.814;2023-06-24T11:35:11;101736.53;;;24.99;100.00
64340;BME280;63709;53.258;-8.814;2023-06-24T11:37:41;101703.91;;;24.83;100.00
64340;BME280;63709;53.258;-8.814;2023-06-24T11:40:08;101703.81;;;24.76;100.00
64340;BME280;63709;53.258;-8.814;2023-06-24T11:42:38;101715.88;;;24.97;100.00
64340;BME280;63709;53.258;-8.814;2023-06-24T11:45:07;101715.31;;;25.01;100.00
64340;BME280;63709;53.258;-8.814;2023-06-24T11:47:33;101709.22;;;24.99;100.00
64340;BME280;63709;53.258;-8.814;2023-06-24T11:50:00;101703.81;;;25.06;100.00
64340;BME280;63709;53.258;-8.814;2023-06-24T11:52:42;101703.56;;;25.30;100.00
64340;BME280;63709;53.258;-8.814;2023-06-24T11:55:20;101700.03;;;25.51;100.00
64340;BME280;63709;53.258;-8.814;2023-06-24T11:57:58;101690.28;;;25.78;100.00
64340;BME280;63709;53.258;-8.814;2023-06-24T12:00:35;101678.81;;;26.11;100.00
64340;BME280;63709;53.258;-8.814;2023-06-24T12:03:04;101678.03;;;26.45;100.00
64340;BME280;63709;53.258;-8.814;2023-06-24T12:05:35;101676.84;;;26.48;100.00
64340;BME280;63709;53.258;-8.814;2023-06-24T12:08:10;101689.38;;;26.64;100.00
64340;BME280;63709;53.258;-8.814;2023-06-24T12:10:38;101689.38;;;26.64;100.00
64340;BME280;63709;53.258;-8.814;2023-06-24T12:13:05;101685.81;;;26.42;100.00
64340;BME280;63709;53.258;-8.814;2023-06-24T12:15:34;101667.06;;;26.17;100.00
64340;BME280;63709;53.258;-8.814;2023-06-24T12:18:01;101667.41;;;26.36;100.00
64340;BME280;63709;53.258;-8.814;2023-06-24T12:20:28;101671.72;;;26.45;100.00
64340;BME280;63709;53.258;-8.814;2023-06-24T12:22:54;101670.31;;;26.84;100.00
64340;BME280;63709;53.258;-8.814;2023-06-24T12:25:20;101638.00;;;26.72;100.00
64340;BME280;63709;53.258;-8.814;2023-06-24T12:27:47;101648.47;;;26.97;100.00
64340;BME280;63709;53.258;-8.814;2023-06-24T12:30:13;101661.06;;;27.19;100.00
64340;BME280;63709;53.258;-8.814;2023-06-24T12:32:40;101654.06;;;27.17;100.00
64340;BME280;63709;53.258;-8.814;2023-06-24T12:35:07;101658.13;;;27.27;100.00
64340;BME280;63709;53.258;-8.814;2023-06-24T12:37:35;101642.97;;;27.38;100.00
64340;BME280;63709;53.258;-8.814;2023-06-24T12:40:03;101631.16;;;27.31;100.00
64340;BME280;63709;53.258;-8.814;2023-06-24T12:42:29;101617.00;;;27.27;100.00
64340;BME280;63709;53.258;-8.814;2023-06-24T12:44:55;101634.53;;;27.33;100.00
64340;BME280;63709;53.258;-8.814;2023-06-24T12:47:21;101625.63;;;27.24;100.00
64340;BME280;63709;53.258;-8.814;2023-06-24T12:49:47;101623.91;;;27.17;100.00
64340;BME280;63709;53.258;-8.814;2023-06-24T12:52:15;101639.31;;;27.11;100.00
64340;BME280;63709;53.258;-8.814;2023-06-24T12:54:48;101627.41;;;26.97;100.00
64340;BME280;63709;53.258;-8.814;2023-06-24T12:57:18;101607.16;;;26.98;100.00
64340;BME280;63709;53.258;-8.814;2023-06-24T12:59:43;101623.56;;;26.92;100.00
64340;BME280;63709;53.258;-8.814;2023-06-24T13:02:09;101620.19;;;26.90;100.00